createdAt,value
2022-12-27T00:03:42.161Z,100.00
2022-12-27T00:08:47.162Z,100.00
2022-12-27T00:13:54.220Z,100.00
2022-12-27T00:18:58.589Z,100.00
2022-12-27T00:24:02.529Z,100.00
2022-12-27T00:29:08.130Z,100.00
2022-12-27T00:34:15.539Z,100.00
2022-12-27T00:39:19.263Z,100.00
2022-12-27T00:44:24.465Z,100.00
2022-12-27T00:49:28.684Z,100.00
2022-12-27T00:54:32.635Z,100.00
2022-12-27T00:59:37.960Z,100.00
2022-12-27T01:04:42.071Z,100.00
2022-12-27T01:09:46.074Z,100.00
2022-12-27T01:14:52.611Z,100.00
2022-12-27T01:19:56.792Z,100.00
2022-12-27T01:25:00.680Z,100.00
2022-12-27T01:30:07.358Z,100.00
2022-12-27T01:35:11.455Z,100.00
2022-12-27T01:40:15.608Z,100.00
2022-12-27T01:45:22.208Z,100.00
2022-12-27T01:50:33.982Z,100.00
2022-12-27T01:55:44.171Z,100.00
2022-12-27T02:00:50.283Z,100.00
2022-12-27T02:05:54.540Z,100.00
2022-12-27T02:10:59.783Z,100.00
2022-12-27T02:16:12.189Z,100.00
2022-12-27T02:21:43.103Z,100.00
2022-12-27T02:26:51.655Z,100.00
2022-12-27T02:32:03.372Z,100.00
2022-12-27T02:37:11.604Z,100.00
2022-12-27T02:42:34.943Z,100.00
2022-12-27T02:47:57.957Z,100.00
2022-12-27T02:53:11.528Z,100.00
2022-12-27T02:58:29.347Z,100.00
2022-12-27T03:03:44.669Z,100.00
2022-12-27T03:08:57.497Z,100.00
2022-12-27T03:14:25.931Z,100.00
2022-12-27T03:19:58.029Z,100.00
2022-12-27T03:25:22.164Z,100.00
2022-12-27T03:30:43.451Z,100.00
2022-12-27T03:36:08.008Z,100.00
2022-12-27T03:41:34.151Z,100.00
2022-12-27T03:46:43.537Z,100.00
2022-12-27T03:51:52.512Z,100.00
2022-12-27T03:56:58.983Z,100.00
2022-12-27T04:02:03.701Z,100.00
2022-12-27T04:07:09.437Z,100.00
2022-12-27T04:12:30.971Z,100.00
2022-12-27T04:17:52.524Z,100.00
2022-12-27T04:23:15.460Z,100.00
2022-12-27T04:28:36.968Z,100.00
2022-12-27T04:33:58.800Z,100.00
2022-12-27T04:39:04.964Z,100.00
2022-12-27T04:44:26.466Z,100.00
2022-12-27T04:49:48.080Z,100.00
2022-12-27T04:54:59.162Z,100.00
2022-12-27T05:00:35.252Z,100.00
2022-12-27T05:05:40.577Z,100.00
2022-12-27T05:11:03.631Z,100.00
2022-12-27T05:16:09.805Z,100.00
2022-12-27T05:21:13.753Z,100.00
2022-12-27T05:26:23.977Z,100.00
2022-12-27T05:31:29.729Z,100.00
2022-12-27T05:36:34.240Z,100.00
2022-12-27T05:41:39.629Z,100.00
2022-12-27T05:46:43.594Z,100.00
2022-12-27T05:51:47.567Z,100.00
2022-12-27T05:56:53.059Z,100.00
2022-12-27T06:01:57.120Z,100.00
2022-12-27T06:07:01.171Z,100.00
2022-12-27T06:12:07.744Z,100.00
2022-12-27T06:17:11.741Z,100.00
2022-12-27T06:22:15.730Z,100.00
2022-12-27T06:27:21.023Z,100.00
2022-12-27T06:32:24.981Z,100.00
2022-12-27T06:37:30.788Z,100.00
2022-12-27T06:42:36.040Z,100.00
2022-12-27T06:47:40.216Z,100.00
2022-12-27T06:52:44.106Z,100.00
2022-12-27T06:57:50.056Z,100.00
2022-12-27T07:02:54.058Z,100.00
2022-12-27T07:07:58.076Z,100.00
2022-12-27T07:13:03.923Z,100.00
2022-12-27T07:18:07.814Z,100.00
2022-12-27T07:23:19.100Z,100.00
2022-12-27T07:28:24.769Z,100.00
2022-12-27T07:33:28.771Z,100.00
2022-12-27T07:38:32.686Z,100.00
2022-12-27T07:43:38.026Z,100.00
2022-12-27T07:48:42.829Z,100.00
2022-12-27T07:53:49.296Z,100.00
2022-12-27T07:58:56.047Z,100.00
2022-12-27T08:06:54.347Z,100.00
2022-12-27T08:11:59.528Z,100.00
2022-12-27T08:17:07.295Z,100.00
2022-12-27T08:22:12.803Z,100.00
2022-12-27T08:27:24.174Z,100.00
2022-12-27T08:32:28.375Z,100.00
2022-12-27T08:37:34.196Z,100.00
2022-12-27T08:42:38.114Z,100.00
2022-12-27T08:47:42.064Z,100.00
2022-12-27T08:52:47.392Z,100.00
2022-12-27T08:57:51.355Z,99.07
2022-12-27T09:02:55.527Z,100.00
2022-12-27T09:08:00.830Z,91.08
2022-12-27T09:13:04.971Z,94.74
2022-12-27T09:18:09.000Z,90.95
2022-12-27T09:23:15.891Z,81.75
2022-12-27T09:28:19.826Z,82.76
2022-12-27T09:33:23.785Z,83.94
2022-12-27T09:38:29.159Z,80.92
2022-12-27T09:43:41.963Z,80.31
2022-12-27T09:48:46.696Z,75.30
2022-12-27T09:53:58.662Z,75.20
2022-12-27T09:59:08.002Z,73.52
2022-12-27T10:46:35.329Z,100.00
2022-12-27T10:51:43.435Z,100.00
2022-12-27T10:56:50.829Z,100.00
2022-12-27T11:02:09.640Z,82.41
2022-12-27T11:07:19.795Z,78.37
2022-12-27T11:12:26.101Z,79.84
2022-12-27T11:17:38.102Z,80.74
2022-12-27T11:22:46.713Z,86.86
2022-12-27T11:27:54.747Z,81.76
2022-12-27T11:33:05.085Z,84.14
2022-12-27T11:38:23.434Z,86.18
2022-12-27T11:43:34.815Z,86.21
2022-12-27T11:48:43.365Z,85.82
2022-12-27T11:54:06.117Z,79.04
2022-12-27T11:59:40.296Z,82.78
2022-12-27T12:05:03.044Z,83.27
2022-12-27T12:10:16.408Z,77.48
2022-12-27T12:15:57.903Z,80.52
2022-12-27T12:21:24.708Z,77.67
2022-12-27T12:26:36.752Z,72.98
2022-12-27T12:32:04.483Z,76.26
2022-12-27T12:37:23.357Z,74.24
2022-12-27T12:42:40.991Z,77.26
2022-12-27T12:48:08.821Z,82.88
2022-12-27T12:53:31.428Z,89.17
2022-12-27T12:58:50.592Z,96.61
2022-12-27T13:04:19.440Z,97.61
2022-12-27T13:09:34.991Z,92.73
2022-12-27T13:14:56.360Z,86.26
2022-12-27T13:20:14.918Z,88.90
2022-12-27T13:25:26.682Z,89.08
2022-12-27T13:30:40.305Z,90.22
2022-12-27T13:35:57.871Z,99.50
2022-12-27T13:41:26.345Z,100.00
2022-12-27T13:47:04.827Z,100.00
2022-12-27T13:52:18.397Z,100.00
2022-12-27T13:58:06.128Z,100.00
2022-12-27T14:03:48.319Z,100.00
2022-12-27T14:09:25.622Z,100.00
2022-12-27T14:14:30.667Z,100.00
2022-12-27T14:19:57.965Z,100.00
2022-12-27T14:25:52.702Z,100.00
2022-12-27T14:31:30.347Z,100.00
2022-12-27T14:37:26.562Z,100.00
2022-12-27T14:43:04.429Z,100.00
2022-12-27T14:48:46.189Z,100.00
2022-12-27T14:54:18.422Z,100.00
2022-12-27T14:59:33.723Z,100.00
2022-12-27T15:04:56.812Z,100.00
2022-12-27T15:10:10.666Z,100.00
2022-12-27T15:15:23.718Z,100.00
2022-12-27T15:20:49.021Z,100.00
2022-12-27T15:26:02.842Z,100.00
2022-12-27T15:31:13.945Z,100.00
2022-12-27T15:36:21.121Z,100.00
2022-12-27T15:41:32.713Z,100.00
2022-12-27T15:47:10.604Z,100.00
2022-12-27T15:52:25.348Z,100.00
2022-12-27T15:58:06.892Z,100.00
2022-12-27T16:03:35.375Z,100.00
2022-12-27T16:08:42.463Z,100.00
2022-12-27T16:13:49.359Z,100.00
2022-12-27T16:19:23.218Z,100.00
2022-12-27T16:24:29.359Z,100.00
2022-12-27T16:29:36.298Z,100.00
2022-12-27T16:34:41.690Z,100.00
2022-12-27T16:40:05.192Z,100.00
2022-12-27T16:45:34.323Z,100.00
2022-12-27T16:51:03.946Z,100.00
2022-12-27T16:56:22.398Z,100.00
2022-12-27T17:01:55.286Z,100.00
2022-12-27T17:06:59.242Z,100.00
2022-12-27T17:12:13.123Z,100.00
2022-12-27T17:17:23.078Z,100.00
2022-12-27T17:22:34.215Z,100.00
2022-12-27T17:28:06.645Z,100.00
2022-12-27T17:33:39.969Z,100.00
2022-12-27T17:38:53.905Z,100.00
2022-12-27T17:44:26.579Z,100.00
2022-12-27T17:49:35.213Z,100.00
2022-12-27T17:54:56.963Z,99.70
2022-12-27T18:00:02.308Z,97.62
2022-12-27T18:05:16.864Z,96.80
2022-12-27T18:10:27.698Z,92.85
2022-12-27T18:15:36.921Z,91.18
2022-12-27T18:20:42.545Z,87.77
2022-12-27T18:25:58.094Z,80.30
2022-12-27T18:31:08.070Z,77.31
2022-12-27T18:36:20.873Z,75.87
2022-12-27T18:41:25.934Z,71.60
2022-12-27T18:46:33.538Z,72.90
2022-12-27T18:51:39.304Z,72.80
2022-12-27T18:56:43.824Z,68.90
2022-12-27T19:01:49.477Z,67.74
2022-12-27T19:07:05.126Z,63.74
2022-12-27T19:12:22.664Z,67.82
2022-12-27T19:17:31.307Z,64.40
2022-12-27T19:22:44.509Z,64.81
2022-12-27T19:27:58.970Z,64.51
2022-12-27T19:33:10.026Z,67.10
2022-12-27T19:38:21.747Z,60.69
2022-12-27T19:43:26.997Z,61.40
2022-12-27T19:48:32.337Z,61.85
2022-12-27T19:53:39.760Z,62.99
2022-12-27T19:58:43.406Z,64.04
2022-12-27T20:03:48.577Z,62.04
2022-12-27T20:08:52.598Z,64.26
2022-12-27T20:13:56.547Z,63.93
2022-12-27T20:19:02.545Z,67.21
2022-12-27T20:24:07.318Z,68.40
2022-12-27T20:29:12.498Z,62.02
2022-12-27T20:34:17.778Z,64.30
2022-12-27T20:39:22.305Z,60.09
2022-12-27T20:44:27.817Z,59.85
2022-12-27T20:49:33.334Z,90.06
2022-12-27T20:54:37.185Z,82.34
2022-12-27T20:59:41.203Z,83.95
2022-12-27T21:04:46.461Z,75.75
2022-12-27T21:09:52.883Z,76.17
2022-12-27T21:14:56.811Z,74.43
2022-12-27T21:20:02.125Z,68.60
2022-12-27T21:25:06.886Z,67.77
2022-12-27T21:30:13.431Z,68.66
2022-12-27T21:35:18.901Z,70.36
2022-12-27T21:40:22.894Z,66.80
2022-12-27T21:45:30.679Z,68.84
2022-12-27T21:50:37.488Z,67.05
2022-12-27T21:55:41.518Z,65.83
2022-12-27T22:00:45.522Z,69.00
2022-12-27T22:05:50.897Z,66.60
2022-12-27T22:10:58.394Z,68.18
2022-12-27T22:16:02.835Z,64.91
2022-12-27T22:21:09.778Z,61.76
2022-12-27T22:26:16.744Z,100.00
2022-12-27T22:31:23.116Z,100.00
2022-12-27T22:36:28.921Z,66.00
2022-12-27T22:41:34.536Z,59.79
2022-12-27T22:52:04.755Z,100.00
2022-12-27T22:57:08.638Z,100.00
2022-12-27T23:02:12.869Z,81.85
2022-12-27T23:07:20.165Z,84.04
2022-12-27T23:12:24.503Z,90.95
2022-12-27T23:17:28.573Z,76.24
2022-12-27T23:22:34.069Z,94.54
2022-12-27T23:27:38.190Z,81.06
2022-12-27T23:32:42.262Z,89.45
2022-12-27T23:37:47.662Z,100.00
2022-12-27T23:42:51.586Z,100.00
2022-12-27T23:47:55.480Z,100.00
2022-12-27T23:53:00.746Z,100.00
2022-12-27T23:58:04.617Z,100.00
